Weather History for KIRS - February, 2013

Change the Weather History Date:

Sunday, February 24, 2013

  Actual Average (KAZO) Record (KAZO)
Temperature  
Mean Temperature 29 °F 29 °F  
Max Temperature 35 °F 37 °F - ()
Min Temperature 23 °F 22 °F - ()
Degree Days  
Heating Degree Days 36 36  
Month to date heating degree days 925  
Since 1 July heating degree days 4633  
Cooling Degree Days 0 0  
Month to date cooling degree days 0  
Year to date cooling degree days 0  
Moisture  
Dew Point 22 °F    
Average Humidity 77    
Maximum Humidity 93    
Minimum Humidity 60    
Precipitation  
Precipitation 0.00 in 0.06 in - ()
Month to date precipitation 1.21  
Year to date precipitation 3.00  
Sea Level Pressure  
Sea Level Pressure 30.03 in    
Wind  
Wind Speed 6 mph (WSW)    
Max Wind Speed 14 mph    
Max Gust Speed -    
Visibility 10 miles    
Events Snow    
T = Trace of Precipitation, MM = Missing Value Source: NWS Daily Summary

Daily Weather History Graph

Daily Weather History Graph

Search for Another Location

Airport or City:

Trip Planner

Search our weather history database for the weather conditions in past years. The results will help you decide how hot, cold, wet, or windy it might be!

Date:

Astronomy

Feb. 24, 2013 Rise Set
Actual Time 7:24 AM EST 6:26 PM EST
Civil Twilight 6:55 AM EST 6:54 PM EST
Nautical Twilight 6:23 AM EST 7:26 PM EST
Astronomical Twilight 5:51 AM EST 7:59 PM EST
Moon 5:36 PM EST (2/24) 6:21 AM EST (2/24)
Length of Visible Light 11h 58m
Length of Day
11h 02m
Waxing Gibbous, 99% of the Moon is Illuminated
Feb 24
Waxing Gibbous
Feb 25
Full
Mar 4
Last Quarter
Mar 11
New
Mar 19
First Quarter

Hourly Weather History & Observations

Time (EST) Temp. Windchill Dew Point Humidity Pressure Visibility Wind Dir Wind Speed Gust Speed Precip Events Conditions
12:15 AM 24.8 °F 16.9 °F 19.4 °F 80% 29.91 in 10.0 mi WSW 6.9 mph - N/A   Overcast
12:34 AM 24.8 °F 16.1 °F 19.4 °F 80% 29.91 in 10.0 mi WSW 8.1 mph - N/A   Overcast
12:55 AM 24.8 °F 16.1 °F 19.4 °F 80% 29.91 in 10.0 mi WSW 8.1 mph - N/A   Overcast
1:15 AM 24.8 °F 16.9 °F 19.4 °F 80% 29.92 in 10.0 mi WSW 6.9 mph - N/A   Overcast
1:35 AM 24.8 °F 19.1 °F 19.4 °F 80% 29.92 in 10.0 mi WSW 4.6 mph - N/A   Overcast
1:55 AM 24.8 °F 16.9 °F 19.4 °F 80% 29.92 in 10.0 mi WSW 6.9 mph - N/A   Overcast
2:14 AM 24.8 °F 17.9 °F 19.4 °F 80% 29.93 in 10.0 mi WSW 5.8 mph - N/A   Overcast
2:35 AM 24.8 °F 16.9 °F 19.4 °F 80% 29.93 in 10.0 mi SW 6.9 mph - N/A   Overcast
2:55 AM 24.8 °F 19.1 °F 19.4 °F 80% 29.93 in 10.0 mi WSW 4.6 mph - N/A   Overcast
3:15 AM 24.8 °F 17.9 °F 19.4 °F 80% 29.93 in 10.0 mi WSW 5.8 mph - N/A   Overcast
3:34 AM 24.8 °F 19.1 °F 19.4 °F 80% 29.93 in 10.0 mi WSW 4.6 mph - N/A   Overcast
3:55 AM 24.8 °F 17.9 °F 19.4 °F 80% 29.93 in 10.0 mi WSW 5.8 mph - N/A   Overcast
4:15 AM 24.8 °F 17.9 °F 19.4 °F 80% 29.93 in 10.0 mi WSW 5.8 mph - N/A   Overcast
4:34 AM 24.8 °F 16.9 °F 19.4 °F 80% 29.93 in 10.0 mi WSW 6.9 mph - N/A   Overcast
4:55 AM 24.8 °F 17.9 °F 19.4 °F 80% 29.94 in 10.0 mi West 5.8 mph - N/A   Overcast
5:15 AM 24.8 °F 17.9 °F 19.4 °F 80% 29.95 in 10.0 mi West 5.8 mph - N/A Snow Light Snow
5:34 AM 24.8 °F 16.9 °F 19.4 °F 80% 29.95 in 10.0 mi West 6.9 mph - N/A   Overcast
5:55 AM 24.8 °F 17.9 °F 19.4 °F 80% 29.96 in 10.0 mi West 5.8 mph - N/A   Overcast
6:15 AM 24.8 °F 16.1 °F 19.4 °F 80% 29.96 in 10.0 mi WSW 8.1 mph - N/A   Overcast
6:34 AM 24.8 °F 16.9 °F 19.4 °F 80% 29.97 in 10.0 mi West 6.9 mph - N/A Snow Light Snow
6:55 AM 24.8 °F 16.1 °F 19.4 °F 80% 29.97 in 7.0 mi WSW 8.1 mph - N/A Snow Light Snow
7:14 AM 24.8 °F 16.9 °F 19.4 °F 80% 29.97 in 10.0 mi WSW 6.9 mph - N/A Snow Light Snow
7:35 AM 24.8 °F 19.1 °F 19.4 °F 80% 29.98 in 10.0 mi West 4.6 mph - N/A   Overcast
7:55 AM 24.8 °F 16.9 °F 19.4 °F 80% 30.00 in 7.0 mi WSW 6.9 mph - N/A   Overcast
8:15 AM 23.0 °F 13.9 °F 19.4 °F 86% 30.00 in 7.0 mi WSW 8.1 mph - N/A   Mostly Cloudy
8:35 AM 23.0 °F 14.7 °F 19.4 °F 86% 30.01 in 7.0 mi WSW 6.9 mph - N/A   Scattered Clouds
8:54 AM 24.8 °F 19.1 °F 19.4 °F 80% 30.01 in 7.0 mi WSW 4.6 mph - N/A   Clear
9:15 AM 24.8 °F 17.9 °F 21.2 °F 86% 30.02 in 7.0 mi West 5.8 mph - N/A   Clear
9:35 AM 26.6 °F 17.5 °F 21.2 °F 80% 30.03 in 10.0 mi WSW 9.2 mph - N/A   Clear
9:54 AM 26.6 °F 17.5 °F 21.2 °F 80% 30.03 in 10.0 mi WSW 9.2 mph - N/A   Clear
10:15 AM 28.4 °F 19.7 °F 21.2 °F 74% 30.04 in 10.0 mi WSW 9.2 mph - N/A   Clear
10:35 AM 28.4 °F 19.7 °F 21.2 °F 74% 30.04 in 10.0 mi West 9.2 mph - N/A   Mostly Cloudy
10:54 AM 28.4 °F 19.7 °F 23.0 °F 80% 30.04 in 10.0 mi West 9.2 mph - N/A   Overcast
11:15 AM 28.4 °F 19.7 °F 23.0 °F 80% 30.05 in 10.0 mi West 9.2 mph - N/A   Overcast
11:35 AM 30.2 °F 21.9 °F 24.8 °F 80% 30.05 in 10.0 mi WSW 9.2 mph - N/A   Overcast
11:54 AM 30.2 °F 21.3 °F 23.0 °F 75% 30.06 in 10.0 mi WSW 10.4 mph - N/A   Mostly Cloudy
12:15 PM 33.8 °F 25.3 °F 24.8 °F 70% 30.06 in 10.0 mi WSW 11.5 mph - N/A   Mostly Cloudy
12:35 PM 33.8 °F 25.8 °F 24.8 °F 70% 30.06 in 10.0 mi West 10.4 mph - N/A   Overcast
12:55 PM 33.8 °F 27.7 °F 24.8 °F 70% 30.06 in 10.0 mi West 6.9 mph - N/A   Mostly Cloudy
1:15 PM 33.8 °F 26.4 °F 24.8 °F 70% 30.06 in 10.0 mi West 9.2 mph - N/A   Mostly Cloudy
1:34 PM 33.8 °F 25.3 °F 24.8 °F 70% 30.06 in 10.0 mi West 11.5 mph - N/A   Overcast
1:55 PM 33.8 °F 25.3 °F 24.8 °F 70% 30.06 in 10.0 mi West 11.5 mph - N/A   Mostly Cloudy
2:15 PM 33.8 °F 24.3 °F 24.8 °F 70% 30.06 in 10.0 mi WSW 13.8 mph - N/A   Mostly Cloudy
2:34 PM 35.6 °F 27.1 °F 24.8 °F 65% 30.06 in 10.0 mi West 12.7 mph - N/A   Scattered Clouds
2:55 PM 33.8 °F 27.7 °F 24.8 °F 70% 30.06 in 10.0 mi WNW 6.9 mph - N/A   Mostly Cloudy
3:14 PM 33.8 °F 26.4 °F 24.8 °F 70% 30.06 in 10.0 mi West 9.2 mph - N/A   Overcast
3:35 PM 35.6 °F 28.0 °F 23.0 °F 60% 30.07 in 10.0 mi WNW 10.4 mph - N/A   Scattered Clouds
3:55 PM 35.6 °F 29.2 °F 24.8 °F 65% 30.07 in 10.0 mi WNW 8.1 mph - N/A   Scattered Clouds
4:14 PM 35.6 °F 28.6 °F 23.0 °F 60% 30.08 in 10.0 mi West 9.2 mph - N/A   Clear
4:35 PM 33.8 °F 25.8 °F 23.0 °F 65% 30.08 in 10.0 mi West 10.4 mph - N/A   Clear
4:55 PM 33.8 °F 27.0 °F 24.8 °F 70% 30.08 in 10.0 mi West 8.1 mph - N/A   Clear
5:14 PM 33.8 °F 28.6 °F 23.0 °F 65% 30.08 in 10.0 mi West 5.8 mph - N/A   Scattered Clouds
5:35 PM 33.8 °F 28.6 °F 24.8 °F 70% 30.09 in 10.0 mi West 5.8 mph - N/A   Scattered Clouds
5:54 PM 33.8 °F 29.6 °F 23.0 °F 65% 30.09 in 10.0 mi West 4.6 mph - N/A   Clear
6:15 PM 32.0 °F 28.7 °F 23.0 °F 69% 30.10 in 10.0 mi West 3.5 mph - N/A   Clear
6:35 PM 30.2 °F - 23.0 °F 75% 30.10 in 10.0 mi Calm Calm - N/A   Clear
6:54 PM 30.2 °F - 23.0 °F 75% 30.11 in 10.0 mi Calm Calm - N/A   Clear
7:15 PM 28.4 °F - 23.0 °F 80% 30.11 in 10.0 mi Calm Calm - N/A   Clear
7:35 PM 30.2 °F - 23.0 °F 75% 30.12 in 10.0 mi Calm Calm - N/A   Clear
7:54 PM 28.4 °F - 23.0 °F 80% 30.12 in 10.0 mi Calm Calm - N/A   Clear
8:15 PM 28.4 °F - 23.0 °F 80% 30.12 in 10.0 mi Calm Calm - N/A   Clear
8:35 PM 28.4 °F - 23.0 °F 80% 30.13 in 10.0 mi Calm Calm - N/A   Clear
8:54 PM 26.6 °F - 23.0 °F 86% 30.13 in 10.0 mi Calm Calm - N/A   Clear
9:15 PM 28.4 °F - 23.0 °F 80% 30.13 in 10.0 mi Calm Calm - N/A   Clear
9:35 PM 26.6 °F - 21.2 °F 80% 30.13 in 10.0 mi Calm Calm - N/A   Clear
9:54 PM 26.6 °F - 21.2 °F 80% 30.13 in 10.0 mi Calm Calm - N/A   Clear
10:15 PM 24.8 °F - 21.2 °F 86% 30.13 in 10.0 mi Calm Calm - N/A   Clear
10:35 PM 24.8 °F - 21.2 °F 86% 30.13 in 10.0 mi Calm Calm - N/A   Clear
10:54 PM 24.8 °F - 21.2 °F 86% 30.13 in 10.0 mi Calm Calm - N/A   Clear
11:15 PM 23.0 °F - 21.2 °F 93% 30.14 in 10.0 mi Calm Calm - N/A   Clear
11:34 PM 23.0 °F - 21.2 °F 93% 30.14 in 10.0 mi Calm Calm - N/A   Clear
11:55 PM 23.0 °F - 21.2 °F 93% 30.13 in 7.0 mi Calm Calm - N/A   Clear